Uppr Free Township, New Jersey
Current Conditions -  °F | °C
As of 2:58 PM on Monday 22 Dec 2014 (Local Time) from KWRI Reporting Station
Broken Clouds Broken Clouds  
Wind Chill: 38°   Ceiling: 9000
Heat Index: 42°   Visibility: 9mi
Dew Point: 37°   Wind: 6mph
Humidity: 84%   Direction: 30°NNE
Pressure: 30.19"   Gusts: NA
Location:  40.2135°N, 74.5716°W
Report Text: KWRI 221958Z AUTO 03005KT 9SM BKN090 06/03 A3019 RMK AO2 SLP228 T00550030
Loading
Personal Weather Stations






























Interactive Weather Map New forecast layout! Learn more

10-Day Weather Forecast

Advertisements
Track Severe Weather on mobile